createdAt,value
2018-03-04T00:02:17.749Z,112.87
2018-03-04T00:04:47.025Z,129.50
2018-03-04T00:07:16.316Z,111.27
2018-03-04T00:09:48.095Z,128.80
2018-03-04T00:12:17.470Z,125.47
2018-03-04T00:14:47.541Z,136.07
2018-03-04T00:17:16.951Z,112.33
2018-03-04T00:19:46.215Z,120.83
2018-03-04T00:22:16.281Z,113.57
2018-03-04T00:24:45.651Z,115.70
2018-03-04T00:27:15.659Z,130.03
2018-03-04T00:29:45.001Z,112.10
2018-03-04T00:32:14.263Z,113.37
2018-03-04T00:34:43.542Z,118.10
2018-03-04T00:37:14.302Z,109.03
2018-03-04T00:39:43.585Z,127.53
2018-03-04T00:42:12.885Z,125.90
2018-03-04T00:44:42.180Z,129.33
2018-03-04T00:47:11.442Z,130.23
2018-03-04T00:49:40.720Z,111.47
2018-03-04T00:52:09.983Z,120.83
2018-03-04T00:54:39.277Z,119.40
2018-03-04T00:57:08.517Z,128.93
2018-03-04T00:59:37.806Z,129.60
2018-03-04T01:02:07.075Z,121.70
2018-03-04T01:04:36.349Z,113.37
2018-03-04T01:07:05.658Z,133.83
2018-03-04T01:09:34.917Z,108.77
2018-03-04T01:12:04.266Z,115.00
2018-03-04T01:14:33.715Z,118.77
2018-03-04T01:17:03.129Z,112.93
2018-03-04T01:19:32.504Z,127.53
2018-03-04T01:22:01.799Z,120.67
2018-03-04T01:24:31.147Z,111.40
2018-03-04T01:27:01.253Z,116.70
2018-03-04T01:29:32.234Z,127.33
2018-03-04T01:32:01.518Z,109.90
2018-03-04T01:34:30.805Z,103.80
2018-03-04T01:37:00.839Z,130.60
2018-03-04T01:39:30.123Z,106.77
2018-03-04T01:41:59.391Z,144.93
2018-03-04T01:44:28.809Z,130.03
2018-03-04T01:46:58.942Z,99.47
2018-03-04T01:49:29.014Z,121.00
2018-03-04T01:51:58.251Z,114.70
2018-03-04T01:54:27.523Z,121.47
2018-03-04T01:56:56.803Z,110.67
2018-03-04T01:59:26.050Z,122.20
2018-03-04T02:01:55.353Z,124.33
2018-03-04T02:04:24.591Z,120.47
2018-03-04T02:06:53.892Z,128.73
2018-03-04T02:09:23.142Z,111.77
2018-03-04T02:11:52.532Z,119.70
2018-03-04T02:14:21.814Z,123.20
2018-03-04T02:16:51.068Z,122.87
2018-03-04T02:19:20.350Z,127.63
2018-03-04T02:21:49.603Z,122.73
2018-03-04T02:24:18.911Z,120.33
2018-03-04T02:26:48.179Z,120.60
2018-03-04T02:29:17.480Z,134.00
2018-03-04T02:31:47.522Z,111.80
2018-03-04T02:34:16.805Z,125.70
2018-03-04T02:36:46.193Z,130.90
2018-03-04T02:39:16.257Z,131.73
2018-03-04T02:41:45.512Z,114.93
2018-03-04T02:44:16.342Z,117.77
2018-03-04T02:46:45.614Z,118.03
2018-03-04T02:49:15.102Z,112.70
2018-03-04T02:51:45.000Z,122.63
2018-03-04T02:54:14.255Z,128.47
2018-03-04T02:56:43.871Z,120.10
2018-03-04T02:59:13.138Z,115.90
2018-03-04T03:01:42.421Z,120.50
2018-03-04T03:04:11.715Z,132.53
2018-03-04T03:06:41.010Z,132.87
2018-03-04T03:09:10.316Z,144.97
2018-03-04T03:11:39.622Z,129.23
2018-03-04T03:14:09.095Z,128.17
2018-03-04T03:16:38.342Z,125.73
2018-03-04T03:19:07.631Z,140.80
2018-03-04T03:21:36.965Z,125.10
2018-03-04T03:24:06.238Z,134.93
2018-03-04T03:26:35.522Z,149.00
2018-03-04T03:29:04.832Z,150.70
2018-03-04T03:31:34.096Z,150.83
2018-03-04T03:34:03.369Z,160.00
2018-03-04T03:36:32.708Z,131.10
2018-03-04T03:39:02.774Z,132.67
2018-03-04T03:41:32.111Z,122.50
2018-03-04T03:44:01.352Z,139.77
2018-03-04T03:46:30.602Z,148.70
2018-03-04T03:48:59.873Z,161.63
2018-03-04T03:51:29.138Z,147.67
2018-03-04T03:53:58.422Z,160.17
2018-03-04T03:56:27.697Z,179.50
2018-03-04T03:58:56.965Z,145.40
2018-03-04T04:01:26.222Z,162.90
2018-03-04T04:03:55.503Z,146.43
2018-03-04T04:06:24.937Z,157.77
2018-03-04T04:08:54.974Z,160.23
2018-03-04T04:11:24.249Z,147.00
2018-03-04T04:13:54.316Z,260.00
2018-03-04T04:16:23.785Z,147.77
2018-03-04T04:18:53.850Z,178.83
2018-03-04T04:21:23.114Z,153.73
2018-03-04T04:23:52.513Z,155.23
2018-03-04T04:26:22.550Z,159.73
2018-03-04T04:28:51.818Z,170.70
2018-03-04T04:31:21.087Z,152.03
2018-03-04T04:33:50.356Z,147.70
2018-03-04T04:36:19.839Z,191.67
2018-03-04T04:38:49.114Z,128.23
2018-03-04T04:41:18.355Z,152.20
2018-03-04T04:43:47.634Z,163.37
2018-03-04T04:46:16.890Z,144.27
2018-03-04T04:48:46.189Z,165.40
2018-03-04T04:51:15.465Z,173.73
2018-03-04T04:53:44.767Z,133.63
2018-03-04T04:56:14.205Z,153.23
2018-03-04T04:58:43.472Z,139.90
2018-03-04T05:01:12.717Z,190.67
2018-03-04T05:03:41.989Z,162.37
2018-03-04T05:06:11.254Z,143.97
2018-03-04T05:08:40.505Z,186.37
2018-03-04T05:11:09.776Z,164.87
2018-03-04T05:13:39.214Z,169.67
2018-03-04T05:16:08.502Z,150.43
2018-03-04T05:18:37.763Z,187.53
2018-03-04T05:21:07.049Z,174.47
2018-03-04T05:23:37.084Z,173.23
2018-03-04T05:26:06.349Z,151.87
2018-03-04T05:28:35.595Z,171.27
2018-03-04T05:31:04.930Z,200.77
2018-03-04T05:33:34.196Z,163.27
2018-03-04T05:36:03.445Z,192.90
2018-03-04T05:38:32.726Z,172.70
2018-03-04T05:41:02.085Z,168.43
2018-03-04T05:43:32.138Z,159.80
2018-03-04T05:46:01.382Z,177.30
2018-03-04T05:48:30.650Z,178.67
2018-03-04T05:50:59.910Z,195.50
2018-03-04T05:53:29.959Z,184.73
2018-03-04T05:56:00.181Z,189.27
2018-03-04T05:58:29.440Z,228.80
2018-03-04T06:00:59.609Z,173.20
2018-03-04T06:03:28.880Z,181.77
2018-03-04T06:05:58.994Z,194.53
2018-03-04T06:08:29.015Z,179.10
2018-03-04T06:10:58.520Z,199.33
2018-03-04T06:13:27.925Z,166.80
2018-03-04T06:15:57.164Z,171.80
2018-03-04T06:18:26.428Z,166.57
2018-03-04T06:20:55.700Z,174.40
2018-03-04T06:23:24.989Z,173.00
2018-03-04T06:25:54.332Z,196.87
2018-03-04T06:28:23.595Z,190.87
2018-03-04T06:30:52.863Z,198.57
2018-03-04T06:33:22.177Z,207.37
2018-03-04T06:35:51.468Z,210.17
2018-03-04T06:38:20.879Z,188.13
2018-03-04T06:40:50.135Z,211.97
2018-03-04T06:43:19.446Z,198.83
2018-03-04T06:45:48.794Z,208.57
2018-03-04T06:48:18.066Z,207.37
2018-03-04T06:50:47.327Z,191.23
2018-03-04T06:53:16.579Z,170.07
2018-03-04T06:55:45.868Z,171.57
2018-03-04T06:58:15.221Z,160.47
2018-03-04T07:00:44.573Z,193.93
2018-03-04T07:03:13.860Z,204.67
2018-03-04T07:05:43.579Z,219.07
2018-03-04T07:08:12.859Z,208.20
2018-03-04T07:10:42.125Z,210.23
2018-03-04T07:13:11.410Z,201.20
2018-03-04T07:15:40.854Z,204.00
2018-03-04T07:18:10.902Z,173.77
2018-03-04T07:20:40.198Z,176.80
2018-03-04T07:23:09.514Z,211.53
2018-03-04T07:25:38.917Z,194.30
2018-03-04T07:28:08.934Z,210.73
2018-03-04T07:30:38.206Z,207.10
2018-03-04T07:33:07.475Z,215.57
2018-03-04T07:35:36.777Z,195.90
2018-03-04T07:38:06.042Z,189.80
2018-03-04T07:40:35.302Z,212.30
2018-03-04T07:43:06.033Z,193.63
2018-03-04T07:45:36.065Z,205.70
2018-03-04T07:48:05.439Z,241.77
2018-03-04T07:50:34.830Z,198.83
2018-03-04T07:53:04.108Z,183.83
2018-03-04T07:55:33.381Z,168.03
2018-03-04T07:58:03.422Z,182.30
2018-03-04T08:00:32.749Z,254.40
2018-03-04T08:03:02.008Z,206.20
2018-03-04T08:05:31.326Z,188.73
2018-03-04T08:08:00.707Z,196.63
2018-03-04T08:10:30.754Z,167.10
2018-03-04T08:13:00.011Z,196.90
2018-03-04T08:15:29.273Z,219.87
2018-03-04T08:17:58.557Z,181.20
2018-03-04T08:20:27.837Z,166.40
2018-03-04T08:22:57.308Z,181.33
2018-03-04T08:25:36.650Z,179.93
2018-03-04T08:28:23.784Z,199.77
2018-03-04T08:30:53.849Z,200.70
2018-03-04T08:33:23.118Z,177.97
2018-03-04T08:35:52.386Z,181.20
2018-03-04T08:38:21.680Z,179.53
2018-03-04T08:40:50.999Z,202.67
2018-03-04T08:43:21.766Z,176.40
2018-03-04T08:45:51.017Z,177.80
2018-03-04T08:48:20.310Z,207.87
2018-03-04T08:50:49.605Z,208.77
2018-03-04T08:53:18.934Z,179.37
2018-03-04T08:55:49.780Z,191.30
2018-03-04T08:58:19.092Z,231.70
2018-03-04T09:00:48.307Z,195.30
2018-03-04T09:03:17.608Z,192.07
2018-03-04T09:05:46.875Z,209.77
2018-03-04T09:08:16.171Z,234.50
2018-03-04T09:10:45.497Z,206.60
2018-03-04T09:13:14.863Z,193.27
2018-03-04T09:15:44.134Z,222.07
2018-03-04T09:18:13.424Z,200.47
2018-03-04T09:20:42.702Z,187.70
2018-03-04T09:23:11.981Z,193.80
2018-03-04T09:25:41.267Z,197.77
2018-03-04T09:28:10.790Z,174.73
2018-03-04T09:30:40.069Z,191.03
2018-03-04T09:33:10.931Z,172.43
2018-03-04T09:35:40.166Z,205.63
2018-03-04T09:38:09.541Z,162.10
2018-03-04T09:40:39.069Z,176.70
2018-03-04T09:43:08.430Z,170.67
2018-03-04T09:45:37.757Z,160.57
2018-03-04T09:48:07.042Z,171.40
2018-03-04T09:50:36.480Z,185.80
2018-03-04T09:53:06.586Z,163.43
2018-03-04T09:55:36.621Z,189.77
2018-03-04T09:58:05.910Z,152.63
2018-03-04T10:00:35.140Z,194.57
2018-03-04T10:03:04.442Z,182.40
2018-03-04T10:05:33.697Z,171.50
2018-03-04T10:08:03.083Z,188.50
2018-03-04T10:10:32.485Z,207.50
2018-03-04T10:13:01.736Z,235.17
2018-03-04T10:15:31.009Z,213.63
2018-03-04T10:18:00.280Z,218.93
2018-03-04T10:20:29.625Z,171.23
2018-03-04T10:22:58.845Z,184.73
2018-03-04T10:25:28.177Z,211.77
2018-03-04T10:27:57.440Z,205.77
2018-03-04T10:30:27.492Z,238.07
2018-03-04T10:32:57.602Z,179.20
2018-03-04T10:35:27.805Z,210.57
2018-03-04T10:37:57.995Z,192.27
2018-03-04T10:40:27.264Z,171.50
2018-03-04T10:42:56.740Z,170.23
2018-03-04T10:45:26.042Z,193.57
2018-03-04T10:47:55.338Z,187.87
2018-03-04T10:50:24.621Z,198.47
2018-03-04T10:52:54.133Z,183.90
2018-03-04T10:55:23.452Z,146.70
2018-03-04T10:57:52.734Z,181.10
2018-03-04T11:00:24.352Z,185.77
2018-03-04T11:02:59.945Z,168.47
2018-03-04T11:05:29.365Z,181.30
2018-03-04T11:07:59.758Z,157.10
2018-03-04T11:10:29.116Z,160.83
2018-03-04T11:12:58.438Z,174.70
2018-03-04T11:15:28.547Z,149.83
2018-03-04T11:17:58.676Z,149.27
2018-03-04T11:20:27.965Z,159.77
2018-03-04T11:22:58.080Z,153.83
2018-03-04T11:25:27.373Z,173.67
2018-03-04T11:27:56.669Z,168.93
2018-03-04T11:30:27.465Z,147.00
2018-03-04T11:32:56.844Z,157.83
2018-03-04T11:35:26.129Z,159.10
2018-03-04T11:37:56.282Z,167.13
2018-03-04T11:40:25.582Z,160.17
2018-03-04T11:42:54.956Z,161.60
2018-03-04T11:45:24.283Z,154.17
2018-03-04T11:47:53.584Z,146.50
2018-03-04T11:50:22.926Z,147.43
2018-03-04T11:52:52.397Z,136.93
2018-03-04T11:55:21.718Z,150.00
2018-03-04T11:57:51.025Z,154.33
2018-03-04T12:00:20.361Z,136.90
2018-03-04T12:02:49.625Z,144.63
2018-03-04T12:05:18.926Z,146.97
2018-03-04T12:07:48.812Z,133.40
2018-03-04T12:10:18.610Z,164.07
2018-03-04T12:12:48.019Z,119.30
2018-03-04T12:15:17.445Z,150.10
2018-03-04T12:17:47.493Z,163.77
2018-03-04T12:20:17.471Z,129.67
2018-03-04T12:22:46.975Z,125.80
2018-03-04T12:25:16.519Z,117.67
2018-03-04T12:27:45.784Z,127.40
2018-03-04T12:30:15.140Z,126.63
2018-03-04T12:32:44.469Z,121.37
2018-03-04T12:35:13.714Z,133.47
2018-03-04T12:37:43.016Z,156.00
2018-03-04T12:40:12.321Z,148.20
2018-03-04T12:42:41.651Z,132.40
2018-03-04T12:45:11.026Z,112.27
2018-03-04T12:47:40.369Z,114.70
2018-03-04T12:50:09.774Z,109.93
2018-03-04T12:52:39.402Z,111.70
2018-03-04T12:55:08.689Z,105.47
2018-03-04T12:57:38.025Z,98.37
2018-03-04T13:00:07.301Z,88.60
2018-03-04T13:02:37.603Z,96.47
2018-03-04T13:05:06.893Z,98.60
2018-03-04T13:07:36.326Z,107.10
2018-03-04T13:10:05.965Z,101.07
2018-03-04T13:12:37.501Z,109.23
2018-03-04T13:15:07.132Z,109.57
2018-03-04T13:17:36.445Z,98.83
2018-03-04T13:20:05.775Z,101.23
2018-03-04T13:22:35.163Z,101.37
2018-03-04T13:25:04.505Z,99.37
2018-03-04T13:27:33.805Z,101.87
2018-03-04T13:30:03.349Z,94.07
2018-03-04T13:32:32.792Z,102.60
2018-03-04T13:35:02.227Z,98.23
2018-03-04T13:37:32.386Z,95.37
2018-03-04T13:40:02.473Z,104.27
2018-03-04T13:42:32.545Z,93.50
2018-03-04T13:45:01.834Z,85.60
2018-03-04T13:47:31.802Z,93.33
2018-03-04T13:50:01.876Z,92.07
2018-03-04T13:52:31.667Z,106.83
2018-03-04T13:55:01.408Z,86.90
2018-03-04T13:57:30.800Z,91.93
2018-03-04T14:00:00.109Z,94.10
2018-03-04T14:02:29.522Z,86.40
2018-03-04T14:04:58.796Z,87.63
2018-03-04T14:07:28.291Z,83.63
2018-03-04T14:09:57.830Z,93.30
2018-03-04T14:12:27.202Z,85.67
2018-03-04T14:14:57.434Z,77.53
2018-03-04T14:17:26.759Z,78.90
2018-03-04T14:19:56.187Z,88.63
2018-03-04T14:22:25.517Z,83.90
2018-03-04T14:24:54.850Z,68.13
2018-03-04T14:27:24.154Z,77.43
2018-03-04T14:29:53.440Z,82.77
2018-03-04T14:32:22.756Z,65.50
2018-03-04T14:34:52.805Z,60.97
2018-03-04T14:37:22.170Z,87.43
2018-03-04T14:39:51.651Z,66.60
2018-03-04T14:42:20.961Z,63.03
2018-03-04T14:44:50.307Z,65.63
2018-03-04T14:47:19.660Z,53.40
2018-03-04T14:49:49.040Z,56.80
2018-03-04T14:52:18.305Z,76.33
2018-03-04T14:54:47.610Z,61.17
2018-03-04T14:57:17.275Z,62.90
2018-03-04T14:59:46.704Z,60.10
2018-03-04T15:02:16.932Z,61.03
2018-03-04T15:04:46.219Z,68.50
2018-03-04T15:07:15.527Z,69.60
2018-03-04T15:09:44.788Z,67.97
2018-03-04T15:12:14.317Z,67.83
2018-03-04T15:14:43.625Z,62.97
2018-03-04T15:17:13.046Z,85.20
2018-03-04T15:19:42.351Z,66.37
2018-03-04T15:22:11.839Z,65.00
2018-03-04T15:24:42.004Z,58.80
2018-03-04T15:27:11.263Z,61.17
2018-03-04T15:29:41.359Z,66.73
2018-03-04T15:32:11.572Z,60.10
2018-03-04T15:34:40.833Z,54.93
2018-03-04T15:37:10.115Z,49.53
2018-03-04T15:39:40.313Z,59.43
2018-03-04T15:42:09.712Z,47.80
2018-03-04T15:44:39.054Z,47.57
2018-03-04T15:47:08.384Z,53.87
2018-03-04T15:49:37.646Z,47.47
2018-03-04T15:52:06.964Z,53.03
2018-03-04T15:54:36.275Z,43.73
2018-03-04T15:57:05.558Z,54.47
2018-03-04T15:59:34.906Z,46.37
2018-03-04T16:02:04.185Z,58.53
2018-03-04T16:04:33.478Z,49.30
2018-03-04T16:07:02.741Z,51.97
2018-03-04T16:09:32.898Z,54.93
2018-03-04T16:12:02.153Z,54.77
2018-03-04T16:14:32.279Z,51.83
2018-03-04T16:17:01.483Z,52.40
2018-03-04T16:19:30.764Z,74.07
2018-03-04T16:22:00.042Z,50.77
2018-03-04T16:24:29.326Z,61.13
2018-03-04T16:26:59.381Z,50.77
2018-03-04T16:29:28.634Z,53.30
2018-03-04T16:31:57.902Z,63.40
2018-03-04T16:34:27.945Z,42.33
2018-03-04T16:36:58.117Z,61.93
2018-03-04T16:39:28.152Z,58.23
2018-03-04T16:41:57.416Z,53.20
2018-03-04T16:44:26.732Z,68.63
2018-03-04T16:46:56.088Z,54.60
2018-03-04T16:49:26.331Z,52.70
2018-03-04T16:51:55.602Z,57.07
2018-03-04T16:54:25.698Z,56.47
2018-03-04T16:56:54.976Z,75.43
2018-03-04T16:59:24.321Z,63.57
2018-03-04T17:01:53.651Z,54.47
2018-03-04T17:04:22.902Z,53.30
2018-03-04T17:06:52.201Z,62.37
2018-03-04T17:09:21.479Z,61.17
2018-03-04T17:11:50.720Z,55.37
2018-03-04T17:14:21.512Z,64.03
2018-03-04T17:16:50.783Z,59.90
2018-03-04T17:19:20.817Z,48.13
2018-03-04T17:21:50.887Z,61.80
2018-03-04T17:24:20.166Z,67.57
2018-03-04T17:26:50.313Z,52.63
2018-03-04T17:29:19.568Z,64.00
2018-03-04T17:31:48.852Z,64.33
2018-03-04T17:34:18.132Z,56.53
2018-03-04T17:36:47.440Z,50.30
2018-03-04T17:39:16.813Z,54.50
2018-03-04T17:41:46.261Z,56.73
2018-03-04T17:44:15.542Z,54.40
2018-03-04T17:46:44.822Z,67.50
2018-03-04T17:49:14.078Z,46.93
2018-03-04T17:51:43.645Z,58.50
2018-03-04T17:54:12.942Z,50.43
2018-03-04T17:56:42.247Z,54.03
2018-03-04T17:59:11.489Z,52.70
2018-03-04T18:01:41.005Z,53.50
2018-03-04T18:04:10.301Z,39.33
2018-03-04T18:06:40.402Z,55.00
2018-03-04T18:09:10.556Z,69.60
2018-03-04T18:11:40.055Z,56.23
2018-03-04T18:14:09.406Z,52.57
2018-03-04T18:16:38.834Z,71.10
2018-03-04T18:19:08.162Z,67.67
2018-03-04T18:21:37.510Z,47.77
2018-03-04T18:24:07.025Z,74.03
2018-03-04T18:26:36.337Z,61.93
2018-03-04T18:29:05.636Z,57.33
2018-03-04T18:31:34.981Z,58.37
2018-03-04T18:34:04.336Z,60.10
2018-03-04T18:36:33.686Z,66.73
2018-03-04T18:39:02.952Z,55.03
2018-03-04T18:41:32.242Z,52.77
2018-03-04T18:44:03.046Z,69.17
2018-03-04T18:46:32.422Z,63.50
2018-03-04T18:49:02.612Z,47.13
2018-03-04T18:51:32.046Z,50.90
2018-03-04T18:54:02.110Z,59.47
2018-03-04T18:56:31.437Z,58.47
2018-03-04T18:59:00.726Z,72.73
2018-03-04T19:01:30.167Z,62.03
2018-03-04T19:04:00.279Z,78.23
2018-03-04T19:06:30.349Z,62.43
2018-03-04T19:08:59.754Z,65.03
2018-03-04T19:11:29.030Z,65.43
2018-03-04T19:13:58.379Z,65.17
2018-03-04T19:16:27.967Z,60.43
2018-03-04T19:18:57.296Z,49.90
2018-03-04T19:21:26.868Z,56.70
2018-03-04T19:23:56.266Z,46.43
2018-03-04T19:26:25.814Z,48.80
2018-03-04T19:28:55.128Z,54.23
2018-03-04T19:31:24.627Z,54.30
2018-03-04T19:33:54.274Z,55.37
2018-03-04T19:36:23.564Z,49.20
2018-03-04T19:38:53.645Z,53.90
2018-03-04T19:41:22.992Z,54.33
2018-03-04T19:43:52.331Z,42.73
2018-03-04T19:46:21.642Z,43.23
2018-03-04T19:48:50.993Z,49.37
2018-03-04T19:51:20.264Z,55.97
2018-03-04T19:53:49.568Z,44.73
2018-03-04T19:56:18.838Z,42.03
2018-03-04T19:58:48.114Z,49.60
2018-03-04T20:01:17.442Z,37.40
2018-03-04T20:03:47.362Z,36.87
2018-03-04T20:06:16.690Z,51.07
2018-03-04T20:08:46.010Z,36.23
2018-03-04T20:11:15.245Z,53.03
2018-03-04T20:13:44.635Z,64.63
2018-03-04T20:16:13.968Z,40.80
2018-03-04T20:18:43.267Z,44.97
2018-03-04T20:21:12.532Z,38.33
2018-03-04T20:23:41.848Z,37.23
2018-03-04T20:26:11.222Z,42.80
2018-03-04T20:28:40.512Z,35.83
2018-03-04T20:31:09.955Z,36.07
2018-03-04T20:33:39.272Z,57.53
2018-03-04T20:36:09.057Z,47.60
2018-03-04T20:38:39.163Z,43.23
2018-03-04T20:41:09.276Z,38.13
2018-03-04T20:43:39.365Z,44.50
2018-03-04T20:46:08.665Z,35.40
2018-03-04T20:48:38.033Z,32.63
2018-03-04T20:51:07.431Z,32.17
2018-03-04T20:53:36.682Z,41.53
2018-03-04T20:56:05.997Z,34.17
2018-03-04T20:58:35.310Z,40.57
2018-03-04T21:01:04.818Z,27.23
2018-03-04T21:03:34.787Z,41.60
2018-03-04T21:06:04.086Z,33.13
2018-03-04T21:08:33.363Z,35.30
2018-03-04T21:11:02.660Z,37.43
2018-03-04T21:13:34.391Z,38.23
2018-03-04T21:16:05.211Z,35.70
2018-03-04T21:18:34.485Z,31.20
2018-03-04T21:21:03.982Z,33.50
2018-03-04T21:23:33.266Z,42.60
2018-03-04T21:26:02.525Z,38.60
2018-03-04T21:28:31.806Z,36.63
2018-03-04T21:31:01.129Z,42.07
2018-03-04T21:33:38.447Z,35.37
2018-03-04T21:36:07.797Z,38.03
2018-03-04T21:38:37.043Z,36.87
2018-03-04T21:41:06.324Z,31.33
2018-03-04T21:43:35.632Z,29.33
2018-03-04T21:46:05.881Z,35.63
2018-03-04T21:48:36.012Z,47.07
2018-03-04T21:51:06.606Z,24.33
2018-03-04T21:53:36.123Z,31.40
2018-03-04T21:56:05.841Z,37.93
2018-03-04T21:58:35.109Z,46.70
2018-03-04T22:01:04.543Z,34.17
2018-03-04T22:03:35.295Z,41.30
2018-03-04T22:06:04.918Z,34.03
2018-03-04T22:08:34.800Z,37.57
2018-03-04T22:11:05.631Z,35.20
2018-03-04T22:13:35.596Z,46.07
2018-03-04T22:16:05.296Z,36.77
2018-03-04T22:18:34.568Z,40.80
2018-03-04T22:21:03.821Z,34.70
2018-03-04T22:23:33.095Z,36.20
2018-03-04T22:26:02.398Z,37.23
2018-03-04T22:28:31.652Z,45.90
2018-03-04T22:31:00.942Z,37.17
2018-03-04T22:33:30.201Z,48.33
2018-03-04T22:35:59.518Z,43.10
2018-03-04T22:38:28.723Z,31.20
2018-03-04T22:40:57.990Z,32.13
2018-03-04T22:43:28.235Z,49.43
2018-03-04T22:45:57.515Z,45.70
2018-03-04T22:48:26.810Z,52.77
2018-03-04T22:50:56.094Z,45.20
2018-03-04T22:53:25.503Z,37.73
2018-03-04T22:55:54.793Z,50.57
2018-03-04T22:58:24.835Z,39.63
2018-03-04T23:00:54.108Z,40.83
2018-03-04T23:03:23.357Z,43.53
2018-03-04T23:05:53.406Z,51.73
2018-03-04T23:08:22.845Z,43.47
2018-03-04T23:10:52.135Z,45.03
2018-03-04T23:13:21.416Z,46.20
2018-03-04T23:15:50.811Z,39.00
2018-03-04T23:18:20.093Z,46.73
2018-03-04T23:20:49.340Z,58.30
2018-03-04T23:23:20.107Z,61.90
2018-03-04T23:25:49.383Z,64.07
2018-03-04T23:28:18.642Z,58.90
2018-03-04T23:30:47.902Z,50.47
2018-03-04T23:33:17.938Z,62.43
2018-03-04T23:35:47.185Z,59.23
2018-03-04T23:38:17.254Z,63.93
2018-03-04T23:40:46.659Z,61.10
2018-03-04T23:43:15.967Z,64.70
2018-03-04T23:45:45.456Z,48.27
2018-03-04T23:48:14.767Z,45.73
2018-03-04T23:50:44.127Z,60.23
2018-03-04T23:53:13.380Z,56.33
2018-03-04T23:55:42.769Z,65.43
2018-03-04T23:58:12.979Z,56.53
